sensor_id;sensor_type;location;lat;lon;timestamp;temperature;humidity
11855;DHT22;5987;53.140;8.904;2023-04-05T00:02:57;2.40;99.90
11855;DHT22;5987;53.140;8.904;2023-04-05T00:06:02;2.40;99.90
11855;DHT22;5987;53.140;8.904;2023-04-05T00:09:08;2.40;99.90
11855;DHT22;5987;53.140;8.904;2023-04-05T00:12:11;2.30;99.90
11855;DHT22;5987;53.140;8.904;2023-04-05T00:15:16;2.20;99.90
11855;DHT22;5987;53.140;8.904;2023-04-05T00:18:20;2.10;99.90
11855;DHT22;5987;53.140;8.904;2023-04-05T00:21:27;2.00;99.90
11855;DHT22;5987;53.140;8.904;2023-04-05T00:24:31;2.00;99.90
11855;DHT22;5987;53.140;8.904;2023-04-05T00:27:42;2.00;99.90
11855;DHT22;5987;53.140;8.904;2023-04-05T00:30:46;1.80;99.90
11855;DHT22;5987;53.140;8.904;2023-04-05T00:33:49;1.80;99.90
11855;DHT22;5987;53.140;8.904;2023-04-05T00:36:54;1.70;99.90
11855;DHT22;5987;53.140;8.904;2023-04-05T00:39:59;1.70;99.90
11855;DHT22;5987;53.140;8.904;2023-04-05T00:43:02;1.70;99.90
11855;DHT22;5987;53.140;8.904;2023-04-05T00:46:06;1.60;99.90
11855;DHT22;5987;53.140;8.904;2023-04-05T00:49:11;1.60;99.90
11855;DHT22;5987;53.140;8.904;2023-04-05T00:52:15;1.60;99.90
11855;DHT22;5987;53.140;8.904;2023-04-05T00:55:26;1.50;99.90
11855;DHT22;5987;53.140;8.904;2023-04-05T00:58:29;1.50;99.90
11855;DHT22;5987;53.140;8.904;2023-04-05T01:01:35;1.40;99.90
11855;DHT22;5987;53.140;8.904;2023-04-05T01:04:45;1.30;99.90
11855;DHT22;5987;53.140;8.904;2023-04-05T01:07:58;1.30;99.90
11855;DHT22;5987;53.140;8.904;2023-04-05T01:11:18;1.30;99.90
11855;DHT22;5987;53.140;8.904;2023-04-05T01:14:23;1.50;99.90
11855;DHT22;5987;53.140;8.904;2023-04-05T01:17:28;1.40;99.90
11855;DHT22;5987;53.140;8.904;2023-04-05T01:20:41;1.30;99.90
11855;DHT22;5987;53.140;8.904;2023-04-05T01:24:03;1.30;99.90
11855;DHT22;5987;53.140;8.904;2023-04-05T01:27:20;1.20;99.90
11855;DHT22;5987;53.140;8.904;2023-04-05T01:30:31;1.20;99.90
11855;DHT22;5987;53.140;8.904;2023-04-05T01:33:43;1.10;99.90
11855;DHT22;5987;53.140;8.904;2023-04-05T01:36:56;1.10;99.90
11855;DHT22;5987;53.140;8.904;2023-04-05T01:40:06;1.10;99.90
11855;DHT22;5987;53.140;8.904;2023-04-05T01:43:12;1.20;99.90
11855;DHT22;5987;53.140;8.904;2023-04-05T01:46:17;1.10;99.90
11855;DHT22;5987;53.140;8.904;2023-04-05T01:49:21;1.10;99.90
11855;DHT22;5987;53.140;8.904;2023-04-05T01:52:25;1.10;99.90
11855;DHT22;5987;53.140;8.904;2023-04-05T01:55:29;1.00;99.90
11855;DHT22;5987;53.140;8.904;2023-04-05T01:58:32;1.00;99.90
11855;DHT22;5987;53.140;8.904;2023-04-05T02:01:37;1.10;99.90
11855;DHT22;5987;53.140;8.904;2023-04-05T02:04:41;1.00;99.90
11855;DHT22;5987;53.140;8.904;2023-04-05T02:07:45;1.00;99.90
11855;DHT22;5987;53.140;8.904;2023-04-05T02:10:51;0.90;99.90
11855;DHT22;5987;53.140;8.904;2023-04-05T02:13:55;0.80;99.90
11855;DHT22;5987;53.140;8.904;2023-04-05T02:17:00;0.80;99.90
11855;DHT22;5987;53.140;8.904;2023-04-05T02:20:05;0.80;99.90
11855;DHT22;5987;53.140;8.904;2023-04-05T02:23:09;0.90;99.90
11855;DHT22;5987;53.140;8.904;2023-04-05T02:26:13;0.80;99.90
11855;DHT22;5987;53.140;8.904;2023-04-05T02:29:17;0.70;99.90
11855;DHT22;5987;53.140;8.904;2023-04-05T02:32:21;0.70;99.90
11855;DHT22;5987;53.140;8.904;2023-04-05T02:35:26;0.70;99.90
11855;DHT22;5987;53.140;8.904;2023-04-05T02:38:29;0.90;99.90
11855;DHT22;5987;53.140;8.904;2023-04-05T02:41:33;0.90;99.90
11855;DHT22;5987;53.140;8.904;2023-04-05T02:44:38;0.80;99.90
11855;DHT22;5987;53.140;8.904;2023-04-05T02:47:43;0.60;99.90
11855;DHT22;5987;53.140;8.904;2023-04-05T02:50:47;0.60;99.90
11855;DHT22;5987;53.140;8.904;2023-04-05T02:53:51;0.50;99.90
11855;DHT22;5987;53.140;8.904;2023-04-05T02:56:54;0.50;99.90
11855;DHT22;5987;53.140;8.904;2023-04-05T02:59:58;0.60;99.90
11855;DHT22;5987;53.140;8.904;2023-04-05T03:03:03;0.40;99.90
11855;DHT22;5987;53.140;8.904;2023-04-05T03:06:07;0.40;99.90
11855;DHT22;5987;53.140;8.904;2023-04-05T03:09:11;0.40;99.90
11855;DHT22;5987;53.140;8.904;2023-04-05T03:12:16;0.40;99.90
11855;DHT22;5987;53.140;8.904;2023-04-05T03:15:20;0.50;99.90
11855;DHT22;5987;53.140;8.904;2023-04-05T03:18:25;0.40;99.90
11855;DHT22;5987;53.140;8.904;2023-04-05T03:21:30;0.30;99.90
11855;DHT22;5987;53.140;8.904;2023-04-05T03:24:34;0.50;99.90
11855;DHT22;5987;53.140;8.904;2023-04-05T03:27:38;0.30;99.90
11855;DHT22;5987;53.140;8.904;2023-04-05T03:30:41;0.40;99.90
11855;DHT22;5987;53.140;8.904;2023-04-05T03:33:46;0.20;99.90
11855;DHT22;5987;53.140;8.904;2023-04-05T03:36:50;0.50;99.90
11855;DHT22;5987;53.140;8.904;2023-04-05T03:39:53;0.20;99.90
11855;DHT22;5987;53.140;8.904;2023-04-05T03:42:57;0.40;99.90
11855;DHT22;5987;53.140;8.904;2023-04-05T03:46:00;0.10;99.90
11855;DHT22;5987;53.140;8.904;2023-04-05T03:49:06;0.10;99.90
11855;DHT22;5987;53.140;8.904;2023-04-05T03:52:09;0.20;99.90
11855;DHT22;5987;53.140;8.904;2023-04-05T03:55:13;0.00;99.90
11855;DHT22;5987;53.140;8.904;2023-04-05T03:58:17;0.10;99.90
11855;DHT22;5987;53.140;8.904;2023-04-05T04:01:21;0.20;99.90
11855;DHT22;5987;53.140;8.904;2023-04-05T04:04:26;0.00;99.90
11855;DHT22;5987;53.140;8.904;2023-04-05T04:07:30;0.30;99.90
11855;DHT22;5987;53.140;8.904;2023-04-05T04:10:34;0.00;99.90
11855;DHT22;5987;53.140;8.904;2023-04-05T04:13:38;0.10;99.90
11855;DHT22;5987;53.140;8.904;2023-04-05T04:16:42;0.20;99.90
11855;DHT22;5987;53.140;8.904;2023-04-05T04:19:47;0.30;99.90
11855;DHT22;5987;53.140;8.904;2023-04-05T04:22:50;0.30;99.90
11855;DHT22;5987;53.140;8.904;2023-04-05T04:25:54;0.40;99.90
11855;DHT22;5987;53.140;8.904;2023-04-05T04:28:58;0.20;99.90
11855;DHT22;5987;53.140;8.904;2023-04-05T04:32:02;0.10;99.90
11855;DHT22;5987;53.140;8.904;2023-04-05T04:35:09;0.10;99.90
11855;DHT22;5987;53.140;8.904;2023-04-05T04:38:15;0.20;99.90
11855;DHT22;5987;53.140;8.904;2023-04-05T04:41:21;0.30;99.90
11855;DHT22;5987;53.140;8.904;2023-04-05T04:44:27;0.10;99.90
11855;DHT22;5987;53.140;8.904;2023-04-05T04:47:32;0.00;99.90
11855;DHT22;5987;53.140;8.904;2023-04-05T04:50:38;0.20;99.90
11855;DHT22;5987;53.140;8.904;2023-04-05T04:53:41;0.20;99.90
11855;DHT22;5987;53.140;8.904;2023-04-05T04:56:45;0.40;99.90
11855;DHT22;5987;53.140;8.904;2023-04-05T04:59:49;0.20;99.90
11855;DHT22;5987;53.140;8.904;2023-04-05T05:02:54;0.10;99.90
11855;DHT22;5987;53.140;8.904;2023-04-05T05:05:59;0.10;99.90
11855;DHT22;5987;53.140;8.904;2023-04-05T05:09:03;0.30;99.90
11855;DHT22;5987;53.140;8.904;2023-04-05T05:12:07;0.20;99.90
11855;DHT22;5987;53.140;8.904;2023-04-05T05:15:11;0.20;99.90
11855;DHT22;5987;53.140;8.904;2023-04-05T05:18:15;0.20;99.90
11855;DHT22;5987;53.140;8.904;2023-04-05T05:21:20;0.30;99.90
11855;DHT22;5987;53.140;8.904;2023-04-05T05:24:23;0.40;99.90
11855;DHT22;5987;53.140;8.904;2023-04-05T05:27:27;0.50;99.90
11855;DHT22;5987;53.140;8.904;2023-04-05T05:30:32;0.40;99.90
11855;DHT22;5987;53.140;8.904;2023-04-05T05:33:35;0.40;99.90
11855;DHT22;5987;53.140;8.904;2023-04-05T05:36:40;0.40;99.90
11855;DHT22;5987;53.140;8.904;2023-04-05T05:39:44;0.60;99.90
11855;DHT22;5987;53.140;8.904;2023-04-05T05:42:50;0.60;99.90
11855;DHT22;5987;53.140;8.904;2023-04-05T05:45:53;0.70;99.90
11855;DHT22;5987;53.140;8.904;2023-04-05T05:48:57;0.70;99.90
11855;DHT22;5987;53.140;8.904;2023-04-05T05:52:02;0.80;99.90
11855;DHT22;5987;53.140;8.904;2023-04-05T05:55:06;0.90;99.90
11855;DHT22;5987;53.140;8.904;2023-04-05T05:58:10;0.90;99.90
11855;DHT22;5987;53.140;8.904;2023-04-05T06:01:14;1.00;99.90
11855;DHT22;5987;53.140;8.904;2023-04-05T06:04:17;1.00;99.90
11855;DHT22;5987;53.140;8.904;2023-04-05T06:07:22;1.20;99.90
11855;DHT22;5987;53.140;8.904;2023-04-05T06:10:26;1.40;99.90
11855;DHT22;5987;53.140;8.904;2023-04-05T06:13:30;1.50;99.90
11855;DHT22;5987;53.140;8.904;2023-04-05T06:16:34;1.70;99.90
11855;DHT22;5987;53.140;8.904;2023-04-05T06:19:38;1.70;99.90
11855;DHT22;5987;53.140;8.904;2023-04-05T06:22:43;1.80;99.90
11855;DHT22;5987;53.140;8.904;2023-04-05T06:25:46;2.10;99.90
11855;DHT22;5987;53.140;8.904;2023-04-05T06:28:50;2.30;99.90
11855;DHT22;5987;53.140;8.904;2023-04-05T06:31:54;2.60;99.90
11855;DHT22;5987;53.140;8.904;2023-04-05T06:34:59;2.50;99.90
11855;DHT22;5987;53.140;8.904;2023-04-05T06:38:05;2.30;99.90
11855;DHT22;5987;53.140;8.904;2023-04-05T06:41:10;2.20;99.90
11855;DHT22;5987;53.140;8.904;2023-04-05T06:44:14;2.30;99.90
11855;DHT22;5987;53.140;8.904;2023-04-05T06:47:17;2.40;99.90
11855;DHT22;5987;53.140;8.904;2023-04-05T06:50:21;2.30;99.90
11855;DHT22;5987;53.140;8.904;2023-04-05T06:53:26;2.70;99.90
11855;DHT22;5987;53.140;8.904;2023-04-05T06:56:30;2.70;99.90
11855;DHT22;5987;53.140;8.904;2023-04-05T06:59:34;2.70;99.90
11855;DHT22;5987;53.140;8.904;2023-04-05T07:02:38;2.80;99.90
11855;DHT22;5987;53.140;8.904;2023-04-05T07:05:49;3.10;99.90
11855;DHT22;5987;53.140;8.904;2023-04-05T07:08:56;3.50;99.90
11855;DHT22;5987;53.140;8.904;2023-04-05T07:11:59;4.10;99.90
11855;DHT22;5987;53.140;8.904;2023-04-05T07:15:09;4.50;99.90
11855;DHT22;5987;53.140;8.904;2023-04-05T07:18:13;5.00;99.90
11855;DHT22;5987;53.140;8.904;2023-04-05T07:21:17;5.30;99.90
11855;DHT22;5987;53.140;8.904;2023-04-05T07:24:22;5.60;99.90
11855;DHT22;5987;53.140;8.904;2023-04-05T07:27:26;5.10;99.90
11855;DHT22;5987;53.140;8.904;2023-04-05T07:30:31;5.10;99.90
11855;DHT22;5987;53.140;8.904;2023-04-05T07:33:34;5.50;99.90
11855;DHT22;5987;53.140;8.904;2023-04-05T07:36:38;5.30;99.90
11855;DHT22;5987;53.140;8.904;2023-04-05T07:39:43;5.70;99.90
11855;DHT22;5987;53.140;8.904;2023-04-05T07:42:46;6.20;99.90
11855;DHT22;5987;53.140;8.904;2023-04-05T07:45:50;6.20;99.90
11855;DHT22;5987;53.140;8.904;2023-04-05T07:48:54;6.80;99.90
11855;DHT22;5987;53.140;8.904;2023-04-05T07:51:59;7.10;99.90
11855;DHT22;5987;53.140;8.904;2023-04-05T07:55:05;7.40;99.90
11855;DHT22;5987;53.140;8.904;2023-04-05T07:58:09;7.20;99.90
11855;DHT22;5987;53.140;8.904;2023-04-05T08:01:13;7.40;99.90
11855;DHT22;5987;53.140;8.904;2023-04-05T08:04:18;7.60;99.90
11855;DHT22;5987;53.140;8.904;2023-04-05T08:07:22;7.90;99.90
11855;DHT22;5987;53.140;8.904;2023-04-05T08:10:27;7.90;99.90
11855;DHT22;5987;53.140;8.904;2023-04-05T08:13:31;7.80;99.90
11855;DHT22;5987;53.140;8.904;2023-04-05T08:16:35;7.80;98.30
11855;DHT22;5987;53.140;8.904;2023-04-05T08:19:38;7.80;97.40
11855;DHT22;5987;53.140;8.904;2023-04-05T08:22:42;7.70;97.00
11855;DHT22;5987;53.140;8.904;2023-04-05T08:25:47;8.30;94.10
11855;DHT22;5987;53.140;8.904;2023-04-05T08:28:51;8.40;93.40
11855;DHT22;5987;53.140;8.904;2023-04-05T08:31:55;9.00;93.90
11855;DHT22;5987;53.140;8.904;2023-04-05T08:35:00;8.80;90.20
11855;DHT22;5987;53.140;8.904;2023-04-05T08:38:03;8.20;91.30
11855;DHT22;5987;53.140;8.904;2023-04-05T08:41:16;8.30;91.70
11855;DHT22;5987;53.140;8.904;2023-04-05T08:44:21;8.60;90.20
11855;DHT22;5987;53.140;8.904;2023-04-05T08:47:29;8.70;88.50
11855;DHT22;5987;53.140;8.904;2023-04-05T08:50:33;9.00;86.20
11855;DHT22;5987;53.140;8.904;2023-04-05T08:53:37;9.20;83.20
11855;DHT22;5987;53.140;8.904;2023-04-05T08:56:43;9.40;82.90
11855;DHT22;5987;53.140;8.904;2023-04-05T08:59:49;9.70;80.30
11855;DHT22;5987;53.140;8.904;2023-04-05T09:02:55;10.00;78.30
11855;DHT22;5987;53.140;8.904;2023-04-05T09:06:05;9.90;78.20
11855;DHT22;5987;53.140;8.904;2023-04-05T09:09:13;10.20;77.70
11855;DHT22;5987;53.140;8.904;2023-04-05T09:12:20;10.40;74.60
11855;DHT22;5987;53.140;8.904;2023-04-05T09:15:25;10.50;74.60
11855;DHT22;5987;53.140;8.904;2023-04-05T09:18:29;10.60;73.80
11855;DHT22;5987;53.140;8.904;2023-04-05T09:21:57;10.80;73.50
11855;DHT22;5987;53.140;8.904;2023-04-05T09:25:02;11.00;70.10
11855;DHT22;5987;53.140;8.904;2023-04-05T09:28:08;10.90;70.00
11855;DHT22;5987;53.140;8.904;2023-04-05T09:31:28;10.70;71.50
11855;DHT22;5987;53.140;8.904;2023-04-05T09:34:34;10.40;71.20
11855;DHT22;5987;53.140;8.904;2023-04-05T09:37:49;10.20;75.10
11855;DHT22;5987;53.140;8.904;2023-04-05T09:40:55;9.90;75.20
11855;DHT22;5987;53.140;8.904;2023-04-05T09:44:00;9.80;78.60
11855;DHT22;5987;53.140;8.904;2023-04-05T09:47:14;9.70;75.30
11855;DHT22;5987;53.140;8.904;2023-04-05T09:50:19;9.70;74.70
11855;DHT22;5987;53.140;8.904;2023-04-05T09:53:22;9.70;72.70
11855;DHT22;5987;53.140;8.904;2023-04-05T09:56:27;9.60;70.80
11855;DHT22;5987;53.140;8.904;2023-04-05T09:59:33;9.60;69.70
11855;DHT22;5987;53.140;8.904;2023-04-05T10:02:38;9.50;71.60
11855;DHT22;5987;53.140;8.904;2023-04-05T10:05:43;9.60;71.90
11855;DHT22;5987;53.140;8.904;2023-04-05T10:08:47;9.50;74.60
11855;DHT22;5987;53.140;8.904;2023-04-05T10:11:52;9.50;71.80
11855;DHT22;5987;53.140;8.904;2023-04-05T10:14:58;9.60;75.70
11855;DHT22;5987;53.140;8.904;2023-04-05T10:18:06;9.50;75.40
11855;DHT22;5987;53.140;8.904;2023-04-05T10:21:21;9.80;71.80
11855;DHT22;5987;53.140;8.904;2023-04-05T10:24:33;9.70;73.00
11855;DHT22;5987;53.140;8.904;2023-04-05T10:27:46;9.70;74.10
11855;DHT22;5987;53.140;8.904;2023-04-05T10:30:59;9.80;69.60
11855;DHT22;5987;53.140;8.904;2023-04-05T10:34:11;9.70;68.70
11855;DHT22;5987;53.140;8.904;2023-04-05T10:37:35;9.60;69.20
11855;DHT22;5987;53.140;8.904;2023-04-05T10:40:56;9.70;69.70
11855;DHT22;5987;53.140;8.904;2023-04-05T10:44:09;9.80;71.90
11855;DHT22;5987;53.140;8.904;2023-04-05T10:47:31;10.00;69.80
11855;DHT22;5987;53.140;8.904;2023-04-05T10:50:39;10.30;74.10
11855;DHT22;5987;53.140;8.904;2023-04-05T10:53:44;10.20;72.70
11855;DHT22;5987;53.140;8.904;2023-04-05T10:56:51;10.10;74.10
11855;DHT22;5987;53.140;8.904;2023-04-05T10:59:55;10.30;72.90
11855;DHT22;5987;53.140;8.904;2023-04-05T11:03:02;10.40;73.50
11855;DHT22;5987;53.140;8.904;2023-04-05T11:06:20;10.40;71.60
11855;DHT22;5987;53.140;8.904;2023-04-05T11:09:27;10.30;71.50
11855;DHT22;5987;53.140;8.904;2023-04-05T11:13:05;10.30;72.90
11855;DHT22;5987;53.140;8.904;2023-04-05T11:16:15;10.40;72.50
11855;DHT22;5987;53.140;8.904;2023-04-05T11:19:20;10.30;70.60
11855;DHT22;5987;53.140;8.904;2023-04-05T11:22:55;10.30;72.30
11855;DHT22;5987;53.140;8.904;2023-04-05T11:26:04;10.60;69.60
11855;DHT22;5987;53.140;8.904;2023-04-05T11:29:09;10.60;67.90
11855;DHT22;5987;53.140;8.904;2023-04-05T11:32:13;10.50;70.90
11855;DHT22;5987;53.140;8.904;2023-04-05T11:35:18;10.40;67.20
11855;DHT22;5987;53.140;8.904;2023-04-05T11:38:24;10.30;71.10
11855;DHT22;5987;53.140;8.904;2023-04-05T11:41:32;10.40;67.90
11855;DHT22;5987;53.140;8.904;2023-04-05T11:44:43;10.50;68.10
11855;DHT22;5987;53.140;8.904;2023-04-05T11:47:49;10.70;68.50
11855;DHT22;5987;53.140;8.904;2023-04-05T11:50:56;10.70;71.00
11855;DHT22;5987;53.140;8.904;2023-04-05T11:54:00;10.70;71.10
11855;DHT22;5987;53.140;8.904;2023-04-05T11:57:03;10.80;69.20
11855;DHT22;5987;53.140;8.904;2023-04-05T12:00:09;10.70;68.80
11855;DHT22;5987;53.140;8.904;2023-04-05T12:03:14;11.00;68.20
11855;DHT22;5987;53.140;8.904;2023-04-05T12:06:21;11.20;69.70
11855;DHT22;5987;53.140;8.904;2023-04-05T12:09:25;11.40;69.80
11855;DHT22;5987;53.140;8.904;2023-04-05T12:12:34;11.60;69.30
11855;DHT22;5987;53.140;8.904;2023-04-05T12:15:39;11.80;66.40
11855;DHT22;5987;53.140;8.904;2023-04-05T12:18:43;11.80;66.60
11855;DHT22;5987;53.140;8.904;2023-04-05T12:21:48;11.70;69.00
11855;DHT22;5987;53.140;8.904;2023-04-05T12:24:53;11.90;68.30
11855;DHT22;5987;53.140;8.904;2023-04-05T12:28:03;12.00;68.20
11855;DHT22;5987;53.140;8.904;2023-04-05T12:31:10;12.20;66.90
11855;DHT22;5987;53.140;8.904;2023-04-05T12:34:14;11.60;65.40
11855;DHT22;5987;53.140;8.904;2023-04-05T12:37:28;11.50;63.80
11855;DHT22;5987;53.140;8.904;2023-04-05T12:40:35;11.30;64.40
11855;DHT22;5987;53.140;8.904;2023-04-05T12:43:40;10.90;64.80
11855;DHT22;5987;53.140;8.904;2023-04-05T12:46:46;10.60;65.80
11855;DHT22;5987;53.140;8.904;2023-04-05T12:49:49;10.50;66.20
11855;DHT22;5987;53.140;8.904;2023-04-05T12:52:56;10.30;66.40
11855;DHT22;5987;53.140;8.904;2023-04-05T12:56:06;10.10;66.60
11855;DHT22;5987;53.140;8.904;2023-04-05T12:59:10;9.70;66.90
11855;DHT22;5987;53.140;8.904;2023-04-05T13:02:14;9.80;67.50
11855;DHT22;5987;53.140;8.904;2023-04-05T13:05:21;9.80;68.00
11855;DHT22;5987;53.140;8.904;2023-04-05T13:08:27;10.20;67.30
11855;DHT22;5987;53.140;8.904;2023-04-05T13:11:31;10.30;66.60
11855;DHT22;5987;53.140;8.904;2023-04-05T13:14:35;10.50;67.20
11855;DHT22;5987;53.140;8.904;2023-04-05T13:17:38;10.80;66.10
11855;DHT22;5987;53.140;8.904;2023-04-05T13:20:42;11.00;64.90
11855;DHT22;5987;53.140;8.904;2023-04-05T13:23:48;11.20;68.30
11855;DHT22;5987;53.140;8.904;2023-04-05T13:26:51;11.40;71.30
11855;DHT22;5987;53.140;8.904;2023-04-05T13:29:55;11.60;67.30
11855;DHT22;5987;53.140;8.904;2023-04-05T13:32:58;11.60;67.60
11855;DHT22;5987;53.140;8.904;2023-04-05T13:36:02;12.00;66.30
11855;DHT22;5987;53.140;8.904;2023-04-05T13:39:08;12.30;67.00
11855;DHT22;5987;53.140;8.904;2023-04-05T13:42:11;12.50;65.40
11855;DHT22;5987;53.140;8.904;2023-04-05T13:45:15;12.50;63.40
11855;DHT22;5987;53.140;8.904;2023-04-05T13:48:19;12.50;65.10
11855;DHT22;5987;53.140;8.904;2023-04-05T13:51:23;12.60;66.90
11855;DHT22;5987;53.140;8.904;2023-04-05T13:54:28;12.50;65.60
11855;DHT22;5987;53.140;8.904;2023-04-05T13:57:31;12.40;66.10
11855;DHT22;5987;53.140;8.904;2023-04-05T14:00:35;12.10;64.80
11855;DHT22;5987;53.140;8.904;2023-04-05T14:03:41;12.00;63.70
11855;DHT22;5987;53.140;8.904;2023-04-05T14:06:45;12.00;63.70
11855;DHT22;5987;53.140;8.904;2023-04-05T14:09:50;12.30;65.10
11855;DHT22;5987;53.140;8.904;2023-04-05T14:12:53;12.40;66.00
11855;DHT22;5987;53.140;8.904;2023-04-05T14:15:57;12.30;62.90
11855;DHT22;5987;53.140;8.904;2023-04-05T14:19:01;12.30;65.10
11855;DHT22;5987;53.140;8.904;2023-04-05T14:22:05;12.30;64.10
11855;DHT22;5987;53.140;8.904;2023-04-05T14:25:10;12.00;62.60
11855;DHT22;5987;53.140;8.904;2023-04-05T14:28:14;12.00;63.60
11855;DHT22;5987;53.140;8.904;2023-04-05T14:31:18;12.00;61.80
11855;DHT22;5987;53.140;8.904;2023-04-05T14:34:22;11.50;62.30
11855;DHT22;5987;53.140;8.904;2023-04-05T14:37:25;11.60;63.00
11855;DHT22;5987;53.140;8.904;2023-04-05T14:40:30;11.60;64.00
11855;DHT22;5987;53.140;8.904;2023-04-05T14:43:34;11.40;63.90
11855;DHT22;5987;53.140;8.904;2023-04-05T14:46:39;11.10;65.30
11855;DHT22;5987;53.140;8.904;2023-04-05T14:49:43;10.90;65.00
11855;DHT22;5987;53.140;8.904;2023-04-05T14:52:47;10.70;65.70
11855;DHT22;5987;53.140;8.904;2023-04-05T14:55:52;10.70;64.90
11855;DHT22;5987;53.140;8.904;2023-04-05T14:58:56;10.60;65.30
11855;DHT22;5987;53.140;8.904;2023-04-05T15:01:59;10.60;64.80
11855;DHT22;5987;53.140;8.904;2023-04-05T15:05:04;10.60;64.70
11855;DHT22;5987;53.140;8.904;2023-04-05T15:08:08;10.60;64.70
11855;DHT22;5987;53.140;8.904;2023-04-05T15:11:13;10.70;65.00
11855;DHT22;5987;53.140;8.904;2023-04-05T15:14:17;11.00;65.00
11855;DHT22;5987;53.140;8.904;2023-04-05T15:17:33;11.30;63.20
11855;DHT22;5987;53.140;8.904;2023-04-05T15:20:37;11.60;63.20
11855;DHT22;5987;53.140;8.904;2023-04-05T15:23:40;12.00;62.10
11855;DHT22;5987;53.140;8.904;2023-04-05T15:26:46;12.20;62.60
11855;DHT22;5987;53.140;8.904;2023-04-05T15:29:50;12.10;63.60
11855;DHT22;5987;53.140;8.904;2023-04-05T15:32:54;11.80;64.30
11855;DHT22;5987;53.140;8.904;2023-04-05T15:35:57;11.70;63.80
11855;DHT22;5987;53.140;8.904;2023-04-05T15:39:01;11.60;63.60
11855;DHT22;5987;53.140;8.904;2023-04-05T15:42:07;11.60;64.70
11855;DHT22;5987;53.140;8.904;2023-04-05T15:45:11;11.70;63.40
11855;DHT22;5987;53.140;8.904;2023-04-05T15:48:15;11.90;63.60
11855;DHT22;5987;53.140;8.904;2023-04-05T15:51:18;12.00;62.70
11855;DHT22;5987;53.140;8.904;2023-04-05T15:54:22;12.00;62.10
11855;DHT22;5987;53.140;8.904;2023-04-05T15:57:28;12.00;62.00
11855;DHT22;5987;53.140;8.904;2023-04-05T16:00:31;11.70;62.40
11855;DHT22;5987;53.140;8.904;2023-04-05T16:03:35;11.40;63.20
11855;DHT22;5987;53.140;8.904;2023-04-05T16:06:39;11.10;64.50
11855;DHT22;5987;53.140;8.904;2023-04-05T16:09:42;11.00;65.10
11855;DHT22;5987;53.140;8.904;2023-04-05T16:12:48;10.80;65.90
11855;DHT22;5987;53.140;8.904;2023-04-05T16:15:54;10.60;66.90
11855;DHT22;5987;53.140;8.904;2023-04-05T16:18:58;10.50;67.70
11855;DHT22;5987;53.140;8.904;2023-04-05T16:22:02;10.40;68.50
11855;DHT22;5987;53.140;8.904;2023-04-05T16:25:07;10.30;69.40
11855;DHT22;5987;53.140;8.904;2023-04-05T16:28:12;10.20;69.50
11855;DHT22;5987;53.140;8.904;2023-04-05T16:31:17;10.10;69.60
11855;DHT22;5987;53.140;8.904;2023-04-05T16:34:21;10.10;69.00
11855;DHT22;5987;53.140;8.904;2023-04-05T16:37:24;10.00;69.10
11855;DHT22;5987;53.140;8.904;2023-04-05T16:40:28;10.10;68.80
11855;DHT22;5987;53.140;8.904;2023-04-05T16:43:33;10.20;68.10
11855;DHT22;5987;53.140;8.904;2023-04-05T16:46:37;10.20;67.50
11855;DHT22;5987;53.140;8.904;2023-04-05T16:49:41;10.30;67.50
11855;DHT22;5987;53.140;8.904;2023-04-05T16:52:45;10.30;67.10
11855;DHT22;5987;53.140;8.904;2023-04-05T16:55:48;10.20;66.90
11855;DHT22;5987;53.140;8.904;2023-04-05T16:58:53;10.10;67.40
11855;DHT22;5987;53.140;8.904;2023-04-05T17:01:58;10.00;68.80
11855;DHT22;5987;53.140;8.904;2023-04-05T17:05:02;10.00;68.60
11855;DHT22;5987;53.140;8.904;2023-04-05T17:08:07;10.10;67.10
11855;DHT22;5987;53.140;8.904;2023-04-05T17:11:10;10.10;66.30
11855;DHT22;5987;53.140;8.904;2023-04-05T17:14:15;10.00;67.00
11855;DHT22;5987;53.140;8.904;2023-04-05T17:17:19;9.90;66.90
11855;DHT22;5987;53.140;8.904;2023-04-05T17:20:22;9.90;67.20
11855;DHT22;5987;53.140;8.904;2023-04-05T17:23:27;9.90;66.90
11855;DHT22;5987;53.140;8.904;2023-04-05T17:26:30;9.80;67.20
11855;DHT22;5987;53.140;8.904;2023-04-05T17:29:35;9.80;67.90
11855;DHT22;5987;53.140;8.904;2023-04-05T17:32:39;9.60;68.40
11855;DHT22;5987;53.140;8.904;2023-04-05T17:35:43;9.50;69.10
11855;DHT22;5987;53.140;8.904;2023-04-05T17:38:47;9.40;69.10
11855;DHT22;5987;53.140;8.904;2023-04-05T17:41:50;9.30;68.70
11855;DHT22;5987;53.140;8.904;2023-04-05T17:44:58;9.20;69.20
11855;DHT22;5987;53.140;8.904;2023-04-05T17:48:02;9.10;69.60
11855;DHT22;5987;53.140;8.904;2023-04-05T17:51:07;9.00;70.20
11855;DHT22;5987;53.140;8.904;2023-04-05T17:54:10;8.90;72.00
11855;DHT22;5987;53.140;8.904;2023-04-05T17:57:16;8.70;72.70
11855;DHT22;5987;53.140;8.904;2023-04-05T18:00:21;8.60;73.30
11855;DHT22;5987;53.140;8.904;2023-04-05T18:03:26;8.50;73.30
11855;DHT22;5987;53.140;8.904;2023-04-05T18:06:30;8.40;73.90
11855;DHT22;5987;53.140;8.904;2023-04-05T18:09:35;8.30;75.60
11855;DHT22;5987;53.140;8.904;2023-04-05T18:12:42;8.20;77.00
11855;DHT22;5987;53.140;8.904;2023-04-05T18:15:51;8.00;77.70
11855;DHT22;5987;53.140;8.904;2023-04-05T18:18:55;7.90;78.20
11855;DHT22;5987;53.140;8.904;2023-04-05T18:21:59;7.80;78.20
11855;DHT22;5987;53.140;8.904;2023-04-05T18:25:03;7.70;78.20
11855;DHT22;5987;53.140;8.904;2023-04-05T18:28:09;7.70;78.50
11855;DHT22;5987;53.140;8.904;2023-04-05T18:31:25;7.70;78.60
11855;DHT22;5987;53.140;8.904;2023-04-05T18:34:29;7.60;79.50
11855;DHT22;5987;53.140;8.904;2023-04-05T18:37:33;7.60;80.00
11855;DHT22;5987;53.140;8.904;2023-04-05T18:40:37;7.50;80.40
11855;DHT22;5987;53.140;8.904;2023-04-05T18:43:41;7.40;81.00
11855;DHT22;5987;53.140;8.904;2023-04-05T18:46:46;7.30;81.30
11855;DHT22;5987;53.140;8.904;2023-04-05T18:49:51;7.20;81.70
11855;DHT22;5987;53.140;8.904;2023-04-05T18:52:55;7.10;81.50
11855;DHT22;5987;53.140;8.904;2023-04-05T18:55:59;7.00;81.90
11855;DHT22;5987;53.140;8.904;2023-04-05T18:59:02;6.90;82.60
11855;DHT22;5987;53.140;8.904;2023-04-05T19:02:08;7.00;83.70
11855;DHT22;5987;53.140;8.904;2023-04-05T19:05:12;7.00;83.60
11855;DHT22;5987;53.140;8.904;2023-04-05T19:08:17;6.90;84.40
11855;DHT22;5987;53.140;8.904;2023-04-05T19:11:21;6.80;85.20
11855;DHT22;5987;53.140;8.904;2023-04-05T19:14:26;6.80;86.00
11855;DHT22;5987;53.140;8.904;2023-04-05T19:17:31;6.70;87.40
11855;DHT22;5987;53.140;8.904;2023-04-05T19:20:34;6.70;89.40
11855;DHT22;5987;53.140;8.904;2023-04-05T19:23:39;6.70;90.30
11855;DHT22;5987;53.140;8.904;2023-04-05T19:26:43;6.70;90.90
11855;DHT22;5987;53.140;8.904;2023-04-05T19:29:47;6.60;91.50
11855;DHT22;5987;53.140;8.904;2023-04-05T19:32:52;6.60;92.60
11855;DHT22;5987;53.140;8.904;2023-04-05T19:35:57;6.50;93.90
11855;DHT22;5987;53.140;8.904;2023-04-05T19:39:02;6.50;95.70
11855;DHT22;5987;53.140;8.904;2023-04-05T19:42:06;6.40;97.60
11855;DHT22;5987;53.140;8.904;2023-04-05T19:45:11;6.40;99.90
11855;DHT22;5987;53.140;8.904;2023-04-05T19:48:34;6.40;99.90
11855;DHT22;5987;53.140;8.904;2023-04-05T19:51:40;6.30;99.90
11855;DHT22;5987;53.140;8.904;2023-04-05T19:54:44;6.30;99.90
11855;DHT22;5987;53.140;8.904;2023-04-05T19:57:48;6.20;99.90
11855;DHT22;5987;53.140;8.904;2023-04-05T20:00:52;6.10;99.90
11855;DHT22;5987;53.140;8.904;2023-04-05T20:03:58;6.10;99.90
11855;DHT22;5987;53.140;8.904;2023-04-05T20:07:07;6.10;99.90